Time;durP1;ratioP1;P1;durP2;ratioP2;P2;SDS_P1;SDS_P2;PMS_P1;PMS_P2;Temp;Humidity;BMP_temperature;BMP_pressure;BME280_temperature;BME280_humidity;BME280_pressure;Samples;Min_cycle;Max_cycle;Signal;HPM_P1;HPM_P2
2024/03/13 00:02:21;;;;;;;6.22;1.20;;;;;;;;;;5110521;28;20024;-33
2024/03/13 00:04:48;;;;;;;5.85;1.15;;;;;;;;;;5110205;28;20051;-33
2024/03/13 00:07:15;;;;;;;7.80;1.80;;;;;;;;;;5110436;28;20032;-33
2024/03/13 00:09:46;;;;;;;10.07;1.38;;;;;;;;;;5085149;28;20476;-33
2024/03/13 00:12:16;;;;;;;10.25;1.95;;;;;;;;;;5089035;28;20396;-33
2024/03/13 00:14:53;;;;;;;6.13;1.58;;;;;;;;;;5102476;28;20043;-33
2024/03/13 00:17:20;;;;;;;8.63;1.60;;;;;;;;;;5107548;28;20027;-33
2024/03/13 00:25:59;;;;;;;9.80;2.42;;;;;;;;;;5081085;28;20571;-35
2024/03/13 00:31:14;;;;;;;11.55;3.00;;;;;;;;;;5090986;28;19919;-35
2024/03/13 00:33:56;;;;;;;11.80;3.75;;;;;;;;;;5094210;28;20028;-34
2024/03/13 00:36:24;;;;;;;;;;;;;;;;;;5075368;28;20047;-36
2024/03/13 00:39:05;;;;;;;9.85;2.63;;;;;;;;;;5103876;28;20292;-36
2024/03/13 00:41:32;;;;;;;11.98;2.53;;;;;;;;;;5094312;28;20036;-34
2024/03/13 00:43:59;;;;;;;7.78;2.80;;;;;;;;;;5094465;28;20500;-35
2024/03/13 00:49:47;;;;;;;10.35;2.60;;;;;;;;;;5085697;28;20042;-33
2024/03/13 00:52:37;;;;;;;9.30;2.72;;;;;;;;;;5083634;28;20063;-35
2024/03/13 00:55:27;;;;;;;7.45;2.88;;;;;;;;;;5066485;28;20101;-33
2024/03/13 00:58:28;;;;;;;12.80;2.42;;;;;;;;;;5080614;28;20481;-33
2024/03/13 01:13:53;;;;;;;15.90;4.32;;;;;;;;;;5079307;28;20039;-33
2024/03/13 01:16:37;;;;;;;15.00;5.20;;;;;;;;;;5081333;28;20020;-33
2024/03/13 01:21:31;;;;;;;28.33;5.50;;;;;;;;;;5050016;27;745439;-36
2024/03/13 01:23:58;;;;;;;14.35;4.38;;;;;;;;;;5043971;28;20148;-36
2024/03/13 01:26:25;;;;;;;12.63;4.20;;;;;;;;;;5066614;28;20491;-36
2024/03/13 01:28:53;;;;;;;9.57;3.50;;;;;;;;;;5056752;28;20020;-35
2024/03/13 01:31:21;;;;;;;16.00;4.63;;;;;;;;;;5059373;28;20029;-36
2024/03/13 01:33:48;;;;;;;11.63;3.42;;;;;;;;;;5068424;28;20033;-36
2024/03/13 01:37:55;;;;;;;13.43;3.75;;;;;;;;;;5060537;28;20108;-36
2024/03/13 01:39:02;;;;;;;10.57;3.15;;;;;;;;;;5053851;28;20037;-36
2024/03/13 01:55:36;;;;;;;16.38;3.85;;;;;;;;;;5053822;28;20051;-35
2024/03/13 02:03:22;;;;;;;77.90;49.10;;;;;;;;;;5058174;28;20405;-36
2024/03/13 02:05:52;;;;;;;44.25;29.45;;;;;;;;;;5061174;28;20032;-35
2024/03/13 02:08:20;;;;;;;52.50;35.80;;;;;;;;;;5050822;28;20033;-36
2024/03/13 02:10:48;;;;;;;52.20;36.90;;;;;;;;;;5049114;28;20031;-35
2024/03/13 02:13:17;;;;;;;51.05;36.88;;;;;;;;;;5048961;28;20029;-36
2024/03/13 02:15:44;;;;;;;45.97;31.98;;;;;;;;;;5055518;28;20028;-35
2024/03/13 02:18:21;;;;;;;47.75;31.15;;;;;;;;;;5059704;28;20029;-35
2024/03/13 02:20:50;;;;;;;35.85;22.80;;;;;;;;;;5054958;28;20039;-35
2024/03/13 02:23:22;;;;;;;27.52;18.10;;;;;;;;;;5053407;28;20457;-37
2024/03/13 02:25:51;;;;;;;23.75;16.13;;;;;;;;;;5048511;28;20049;-36
2024/03/13 02:28:29;;;;;;;23.92;15.45;;;;;;;;;;5049731;28;20033;-35
2024/03/13 02:30:56;;;;;;;19.83;12.38;;;;;;;;;;5057427;28;20032;-35
2024/03/13 02:33:23;;;;;;;19.60;11.50;;;;;;;;;;5033139;28;20091;-36
2024/03/13 02:35:50;;;;;;;21.42;13.05;;;;;;;;;;5047630;28;20115;-36
2024/03/13 02:38:17;;;;;;;19.45;12.13;;;;;;;;;;5037611;28;20040;-35
2024/03/13 02:40:44;;;;;;;18.98;12.00;;;;;;;;;;5034255;28;20112;-35
2024/03/13 02:43:11;;;;;;;25.65;11.30;;;;;;;;;;5033816;28;20041;-34
2024/03/13 02:45:38;;;;;;;17.98;9.30;;;;;;;;;;5035353;28;20059;-35
2024/03/13 02:48:06;;;;;;;13.98;7.97;;;;;;;;;;5042674;28;20482;-34
2024/03/13 02:50:33;;;;;;;17.73;7.32;;;;;;;;;;5043897;28;20033;-35
2024/03/13 02:53:00;;;;;;;10.75;7.25;;;;;;;;;;5043000;28;20802;-35
2024/03/13 02:55:28;;;;;;;11.95;7.45;;;;;;;;;;5041724;28;20033;-35
2024/03/13 02:57:55;;;;;;;12.48;7.40;;;;;;;;;;5043589;28;20079;-35
2024/03/13 03:00:24;;;;;;;10.65;6.35;;;;;;;;;;5043452;28;20656;-34
2024/03/13 03:02:54;;;;;;;10.15;5.95;;;;;;;;;;5044517;28;20104;-35
2024/03/13 03:05:21;;;;;;;7.80;4.85;;;;;;;;;;5042382;28;20390;-35
2024/03/13 03:07:48;;;;;;;9.10;4.40;;;;;;;;;;5043697;28;20022;-34
2024/03/13 03:10:15;;;;;;;7.55;4.28;;;;;;;;;;5042295;28;20033;-35
2024/03/13 03:12:43;;;;;;;10.95;4.15;;;;;;;;;;5040699;28;20025;-35
2024/03/13 03:15:13;;;;;;;10.88;3.55;;;;;;;;;;5043794;28;20024;-34
2024/03/13 03:17:40;;;;;;;9.35;3.85;;;;;;;;;;5041423;28;20029;-35
2024/03/13 03:20:07;;;;;;;7.13;3.33;;;;;;;;;;5035465;28;20495;-35
2024/03/13 03:22:34;;;;;;;8.45;3.25;;;;;;;;;;5043570;28;20497;-35
2024/03/13 03:25:01;;;;;;;7.85;3.10;;;;;;;;;;5064439;28;20020;-35
2024/03/13 03:27:29;;;;;;;6.55;2.70;;;;;;;;;;5072914;28;20038;-34
2024/03/13 03:29:56;;;;;;;8.15;3.00;;;;;;;;;;5072613;28;20043;-35
2024/03/13 03:32:23;;;;;;;7.72;2.78;;;;;;;;;;5072781;28;20099;-34
2024/03/13 03:34:50;;;;;;;6.63;2.55;;;;;;;;;;5072478;28;20028;-34
2024/03/13 03:37:20;;;;;;;7.95;3.00;;;;;;;;;;5072647;28;20078;-34
2024/03/13 03:39:48;;;;;;;7.20;2.20;;;;;;;;;;5072705;28;20068;-35
2024/03/13 03:42:18;;;;;;;5.93;2.65;;;;;;;;;;5066196;28;20076;-35
2024/03/13 03:44:45;;;;;;;9.70;2.75;;;;;;;;;;5069055;28;20029;-35
2024/03/13 03:47:12;;;;;;;5.18;2.47;;;;;;;;;;5062658;28;20028;-35
2024/03/13 03:49:39;;;;;;;8.07;2.20;;;;;;;;;;5062447;28;20078;-36
2024/03/13 03:52:07;;;;;;;5.50;2.55;;;;;;;;;;5060631;28;20036;-35
2024/03/13 03:54:34;;;;;;;9.80;2.50;;;;;;;;;;5072036;28;20021;-35
2024/03/13 03:57:01;;;;;;;10.07;2.60;;;;;;;;;;5072586;28;20028;-35
2024/03/13 03:59:28;;;;;;;8.30;2.78;;;;;;;;;;5072350;28;20033;-35
2024/03/13 04:01:56;;;;;;;6.40;2.30;;;;;;;;;;5072306;28;20029;-35
2024/03/13 04:04:26;;;;;;;5.55;2.50;;;;;;;;;;5072350;28;20028;-35
2024/03/13 04:06:53;;;;;;;7.97;2.28;;;;;;;;;;5072302;28;20027;-35
2024/03/13 04:09:20;;;;;;;4.97;2.60;;;;;;;;;;5071966;28;20398;-34
2024/03/13 04:11:47;;;;;;;7.82;2.50;;;;;;;;;;5070156;28;20509;-35
2024/03/13 04:14:14;;;;;;;5.60;2.30;;;;;;;;;;5071618;28;20111;-35
2024/03/13 04:16:44;;;;;;;5.38;2.30;;;;;;;;;;5053980;28;20371;-35
2024/03/13 04:19:12;;;;;;;3.58;1.95;;;;;;;;;;5071958;28;20024;-36
2024/03/13 04:21:39;;;;;;;4.22;2.35;;;;;;;;;;5071930;28;20024;-36
2024/03/13 04:24:09;;;;;;;3.40;1.80;;;;;;;;;;5071782;28;20055;-36
2024/03/13 04:26:39;;;;;;;5.78;2.10;;;;;;;;;;5071839;28;20021;-35
2024/03/13 04:29:06;;;;;;;4.53;1.92;;;;;;;;;;5071829;28;20080;-36
2024/03/13 04:31:34;;;;;;;3.50;2.08;;;;;;;;;;5071779;28;20028;-36
2024/03/13 04:34:01;;;;;;;5.47;2.15;;;;;;;;;;5071339;28;20370;-35
2024/03/13 04:36:28;;;;;;;6.72;2.03;;;;;;;;;;5071843;28;20044;-36
2024/03/13 04:38:55;;;;;;;7.13;1.83;;;;;;;;;;5071569;28;20024;-36
2024/03/13 04:41:22;;;;;;;6.50;2.08;;;;;;;;;;5071617;28;20025;-35
2024/03/13 04:43:49;;;;;;;6.40;2.00;;;;;;;;;;5071718;28;20105;-36
2024/03/13 04:46:16;;;;;;;4.13;1.60;;;;;;;;;;5071704;28;20029;-35
2024/03/13 04:48:47;;;;;;;5.40;2.10;;;;;;;;;;5071473;28;20024;-35
2024/03/13 04:51:14;;;;;;;3.38;1.67;;;;;;;;;;5071219;28;20040;-35
2024/03/13 04:53:43;;;;;;;6.47;1.65;;;;;;;;;;5070830;28;20044;-36
2024/03/13 04:56:13;;;;;;;8.88;1.60;;;;;;;;;;5070725;28;20132;-36
2024/03/13 04:58:40;;;;;;;2.25;1.30;;;;;;;;;;5051360;28;20036;-35
2024/03/13 05:01:07;;;;;;;8.43;1.80;;;;;;;;;;5050928;28;20037;-36
2024/03/13 05:03:35;;;;;;;2.78;1.05;;;;;;;;;;5051401;28;20701;-35
2024/03/13 05:06:02;;;;;;;2.55;0.80;;;;;;;;;;5051499;28;20048;-36
2024/03/13 05:08:29;;;;;;;2.28;0.85;;;;;;;;;;5051415;28;20079;-35
2024/03/13 05:10:56;;;;;;;2.33;0.80;;;;;;;;;;5051068;28;20029;-36
2024/03/13 05:13:23;;;;;;;4.35;0.95;;;;;;;;;;5051136;28;20075;-36
2024/03/13 05:15:52;;;;;;;3.10;0.50;;;;;;;;;;5050899;28;20029;-36
2024/03/13 05:18:19;;;;;;;3.58;0.95;;;;;;;;;;5051253;28;20025;-35
2024/03/13 05:20:46;;;;;;;2.95;0.73;;;;;;;;;;5050900;28;20037;-35
2024/03/13 05:23:14;;;;;;;4.93;0.90;;;;;;;;;;5050941;28;20057;-36
2024/03/13 05:25:41;;;;;;;10.85;1.05;;;;;;;;;;5049824;28;20078;-36
2024/03/13 05:28:08;;;;;;;3.40;0.90;;;;;;;;;;5049790;28;20029;-35
2024/03/13 05:30:37;;;;;;;5.40;0.55;;;;;;;;;;5050963;28;20037;-36
2024/03/13 05:33:05;;;;;;;2.10;0.60;;;;;;;;;;5051244;28;20036;-36
2024/03/13 05:35:33;;;;;;;2.08;0.60;;;;;;;;;;5050397;28;20025;-35
2024/03/13 05:38:00;;;;;;;1.70;0.52;;;;;;;;;;5051175;28;20386;-36
2024/03/13 05:40:27;;;;;;;1.10;0.63;;;;;;;;;;5050919;28;20031;-35
2024/03/13 05:42:53;;;;;;;3.22;0.57;;;;;;;;;;5058043;28;20078;-35
2024/03/13 05:45:20;;;;;;;2.13;0.60;;;;;;;;;;5071005;28;20031;-35
2024/03/13 05:47:48;;;;;;;4.70;0.80;;;;;;;;;;5071073;28;20029;-35
2024/03/13 05:50:18;;;;;;;4.40;0.80;;;;;;;;;;5070938;28;20028;-35
2024/03/13 05:52:49;;;;;;;4.57;0.82;;;;;;;;;;5070987;28;20100;-36
2024/03/13 05:55:16;;;;;;;2.78;0.70;;;;;;;;;;5070241;28;20016;-35
2024/03/13 05:57:43;;;;;;;2.63;0.60;;;;;;;;;;5071063;28;20048;-35
2024/03/13 06:00:17;;;;;;;2.72;0.50;;;;;;;;;;5070513;28;20040;-36
2024/03/13 06:02:44;;;;;;;4.07;0.55;;;;;;;;;;5065880;28;20040;-35
2024/03/13 06:05:17;;;;;;;2.67;0.70;;;;;;;;;;5070699;28;20794;-35
2024/03/13 06:07:46;;;;;;;6.55;0.80;;;;;;;;;;5073967;28;20031;-35
2024/03/13 06:10:14;;;;;;;2.97;0.68;;;;;;;;;;5074322;28;20028;-35
2024/03/13 06:12:41;;;;;;;4.35;0.60;;;;;;;;;;5074462;28;20028;-35
2024/03/13 06:15:12;;;;;;;3.53;0.93;;;;;;;;;;5074141;28;20024;-35
2024/03/13 06:17:39;;;;;;;4.30;0.60;;;;;;;;;;5073974;28;20037;-35
2024/03/13 06:20:11;;;;;;;4.25;0.60;;;;;;;;;;5074049;28;20103;-36
2024/03/13 06:22:40;;;;;;;4.00;0.77;;;;;;;;;;5074119;28;20056;-35
2024/03/13 06:25:08;;;;;;;4.05;0.93;;;;;;;;;;5073876;28;20036;-35
2024/03/13 06:27:35;;;;;;;4.15;0.75;;;;;;;;;;5074432;28;20040;-35
2024/03/13 06:30:03;;;;;;;8.18;0.95;;;;;;;;;;5072575;28;20035;-36
2024/03/13 06:32:30;;;;;;;1.67;0.73;;;;;;;;;;5074313;28;20044;-35
2024/03/13 06:34:57;;;;;;;3.40;0.60;;;;;;;;;;5073983;28;20017;-35
2024/03/13 06:37:25;;;;;;;3.67;0.60;;;;;;;;;;5073700;28;20039;-35
2024/03/13 06:39:57;;;;;;;2.47;0.57;;;;;;;;;;5074100;28;20039;-35
2024/03/13 06:42:25;;;;;;;2.88;0.50;;;;;;;;;;5074082;28;20032;-35
2024/03/13 06:44:52;;;;;;;0.60;0.47;;;;;;;;;;5073976;28;20432;-36
2024/03/13 06:47:20;;;;;;;4.38;0.50;;;;;;;;;;5073920;28;20032;-35
2024/03/13 06:49:47;;;;;;;3.22;0.80;;;;;;;;;;5073790;28;20047;-35
2024/03/13 06:52:14;;;;;;;4.22;0.65;;;;;;;;;;5073822;28;20028;-35
2024/03/13 06:54:41;;;;;;;1.83;0.60;;;;;;;;;;5073962;28;20067;-36
2024/03/13 06:57:15;;;;;;;5.43;0.98;;;;;;;;;;5073208;28;20077;-35
2024/03/13 06:59:44;;;;;;;1.90;0.70;;;;;;;;;;5073624;28;20032;-35
2024/03/13 07:02:14;;;;;;;2.28;0.35;;;;;;;;;;5073677;28;20064;-35
2024/03/13 07:04:42;;;;;;;5.38;0.85;;;;;;;;;;5072006;28;20024;-35
2024/03/13 07:07:10;;;;;;;2.33;0.68;;;;;;;;;;5055201;28;20048;-35
2024/03/13 07:09:37;;;;;;;4.50;0.73;;;;;;;;;;5073140;28;20064;-35
2024/03/13 07:12:04;;;;;;;4.45;0.70;;;;;;;;;;5067867;28;20028;-35
2024/03/13 07:14:31;;;;;;;2.95;0.65;;;;;;;;;;5053351;28;20105;-35
2024/03/13 07:16:59;;;;;;;3.53;0.70;;;;;;;;;;5065023;28;20063;-35
2024/03/13 07:19:26;;;;;;;3.55;0.60;;;;;;;;;;5072104;28;20174;-35
2024/03/13 07:21:53;;;;;;;6.28;0.82;;;;;;;;;;5073143;28;20100;-35
2024/03/13 07:24:19;;;;;;;3.53;0.70;;;;;;;;;;5071903;28;20052;-35
2024/03/13 07:26:46;;;;;;;2.08;0.50;;;;;;;;;;5071525;28;20037;-35
2024/03/13 07:29:13;;;;;;;2.08;0.50;;;;;;;;;;5073225;28;20048;-35
2024/03/13 07:31:41;;;;;;;3.50;0.70;;;;;;;;;;5071809;28;20488;-35
2024/03/13 07:34:09;;;;;;;2.50;0.70;;;;;;;;;;5073063;28;20028;-35
2024/03/13 07:36:37;;;;;;;2.58;0.57;;;;;;;;;;5072858;28;20060;-35
2024/03/13 07:39:10;;;;;;;6.13;0.90;;;;;;;;;;5071955;28;20040;-35
2024/03/13 07:41:38;;;;;;;1.90;0.40;;;;;;;;;;5072649;28;20489;-35
2024/03/13 07:44:07;;;;;;;2.72;0.40;;;;;;;;;;5072916;28;20078;-35
2024/03/13 07:46:34;;;;;;;7.43;0.70;;;;;;;;;;5072695;28;20399;-35
2024/03/13 07:49:02;;;;;;;1.60;0.60;;;;;;;;;;5072611;28;20109;-35
2024/03/13 07:51:29;;;;;;;1.17;0.50;;;;;;;;;;5071474;28;20386;-35
2024/03/13 07:53:56;;;;;;;4.85;1.08;;;;;;;;;;5072663;28;20115;-35
2024/03/13 07:56:23;;;;;;;6.45;0.82;;;;;;;;;;5072681;28;20099;-35
2024/03/13 07:58:51;;;;;;;1.80;0.50;;;;;;;;;;5072428;28;20027;-35
2024/03/13 08:01:18;;;;;;;2.45;0.80;;;;;;;;;;5072432;28;20466;-35
2024/03/13 08:03:45;;;;;;;5.72;0.80;;;;;;;;;;5072492;28;20051;-35
2024/03/13 08:06:12;;;;;;;1.88;0.60;;;;;;;;;;5072538;28;20025;-34
2024/03/13 08:08:39;;;;;;;1.83;0.40;;;;;;;;;;5072242;28;20028;-35
2024/03/13 08:11:09;;;;;;;1.98;0.60;;;;;;;;;;5060434;28;20025;-35
2024/03/13 08:13:36;;;;;;;2.20;0.52;;;;;;;;;;5052367;28;20486;-35
2024/03/13 08:16:03;;;;;;;3.53;0.70;;;;;;;;;;5055757;28;20497;-35
2024/03/13 08:18:30;;;;;;;5.20;0.80;;;;;;;;;;5072217;28;20827;-35
2024/03/13 08:20:56;;;;;;;3.30;0.73;;;;;;;;;;5071854;28;20499;-35
2024/03/13 08:23:23;;;;;;;2.75;0.90;;;;;;;;;;5071915;28;20110;-35
2024/03/13 08:25:50;;;;;;;2.20;0.50;;;;;;;;;;5072067;28;20031;-35
2024/03/13 08:28:17;;;;;;;3.00;0.50;;;;;;;;;;5071951;28;20028;-35
2024/03/13 08:30:46;;;;;;;4.88;0.68;;;;;;;;;;5071333;28;20024;-34
2024/03/13 08:33:15;;;;;;;5.93;0.50;;;;;;;;;;5071845;28;20039;-34
2024/03/13 08:35:42;;;;;;;4.15;0.60;;;;;;;;;;5071705;28;20056;-35
2024/03/13 08:38:09;;;;;;;4.40;0.77;;;;;;;;;;5071745;28;20367;-35
2024/03/13 08:40:36;;;;;;;6.82;0.60;;;;;;;;;;5071596;28;20033;-35
2024/03/13 08:43:04;;;;;;;3.10;0.57;;;;;;;;;;5071737;28;20035;-35
2024/03/13 08:45:31;;;;;;;3.72;0.70;;;;;;;;;;5071613;28;20024;-35
2024/03/13 08:48:02;;;;;;;2.75;0.40;;;;;;;;;;5071633;28;20029;-35
2024/03/13 08:50:30;;;;;;;1.48;0.47;;;;;;;;;;5071566;28;20103;-35
2024/03/13 08:52:57;;;;;;;4.82;0.73;;;;;;;;;;5071565;28;20074;-34
2024/03/13 08:55:25;;;;;;;3.35;0.70;;;;;;;;;;5071790;28;20029;-34
2024/03/13 08:57:52;;;;;;;2.35;0.50;;;;;;;;;;5071461;28;20036;-34
2024/03/13 09:00:20;;;;;;;5.80;0.70;;;;;;;;;;5070252;28;20032;-35
2024/03/13 09:02:49;;;;;;;4.65;0.85;;;;;;;;;;5069730;28;20066;-35
2024/03/13 09:05:16;;;;;;;1.33;0.50;;;;;;;;;;5071386;28;20032;-35
2024/03/13 09:07:43;;;;;;;3.80;0.40;;;;;;;;;;5071486;28;20025;-35
2024/03/13 09:10:12;;;;;;;6.57;0.55;;;;;;;;;;5071341;28;20517;-34
2024/03/13 09:12:43;;;;;;;2.00;0.60;;;;;;;;;;5071028;28;20040;-35
2024/03/13 09:15:10;;;;;;;3.33;0.60;;;;;;;;;;5071455;28;20027;-35
2024/03/13 09:17:37;;;;;;;2.90;0.70;;;;;;;;;;5071403;28;20025;-35
2024/03/13 09:20:04;;;;;;;4.38;1.00;;;;;;;;;;5071120;28;20039;-34
2024/03/13 09:22:31;;;;;;;1.95;0.65;;;;;;;;;;5070986;28;20045;-35
2024/03/13 09:24:58;;;;;;;2.75;0.80;;;;;;;;;;5053177;28;20036;-35
2024/03/13 09:27:25;;;;;;;2.92;0.68;;;;;;;;;;5071350;28;20051;-35
2024/03/13 09:29:53;;;;;;;3.08;0.63;;;;;;;;;;5064165;28;20111;-35
2024/03/13 09:32:22;;;;;;;5.15;0.90;;;;;;;;;;5051056;28;20123;-35
2024/03/13 09:34:51;;;;;;;4.75;0.80;;;;;;;;;;5050882;28;20021;-35
2024/03/13 09:37:19;;;;;;;5.82;0.85;;;;;;;;;;5051217;28;20060;-34
2024/03/13 09:39:46;;;;;;;5.05;0.95;;;;;;;;;;5060617;28;20486;-35
2024/03/13 09:42:17;;;;;;;8.57;0.82;;;;;;;;;;5053778;28;20021;-35
2024/03/13 09:44:48;;;;;;;6.15;1.20;;;;;;;;;;5055054;28;20033;-35
2024/03/13 09:47:15;;;;;;;3.05;0.70;;;;;;;;;;5055139;28;20041;-34
2024/03/13 09:49:46;;;;;;;5.82;0.82;;;;;;;;;;5054642;28;20118;-35
2024/03/13 09:52:14;;;;;;;6.45;0.90;;;;;;;;;;5074619;28;20573;-35
2024/03/13 09:54:43;;;;;;;8.57;1.20;;;;;;;;;;5071171;28;20086;-35
2024/03/13 09:57:10;;;;;;;12.77;1.52;;;;;;;;;;5066742;28;20478;-35
2024/03/13 09:59:38;;;;;;;17.70;1.80;;;;;;;;;;5057564;28;20577;-35
2024/03/13 10:02:05;;;;;;;15.57;1.85;;;;;;;;;;5054501;28;20273;-35
2024/03/13 10:04:32;;;;;;;16.20;1.90;;;;;;;;;;5054648;28;20036;-35
2024/03/13 10:07:00;;;;;;;13.40;1.60;;;;;;;;;;5036698;28;20029;-35
2024/03/13 10:09:35;;;;;;;15.73;2.13;;;;;;;;;;5055831;28;20048;-35
2024/03/13 10:12:02;;;;;;;22.33;2.45;;;;;;;;;;5061700;28;20036;-36
2024/03/13 10:14:30;;;;;;;24.13;2.22;;;;;;;;;;5063123;28;20022;-35
2024/03/13 10:17:03;;;;;;;20.40;2.30;;;;;;;;;;5063052;28;20031;-35
2024/03/13 10:19:32;;;;;;;18.67;2.63;;;;;;;;;;5063857;28;20075;-35
2024/03/13 10:22:00;;;;;;;25.17;2.35;;;;;;;;;;5062916;28;20033;-34
2024/03/13 10:24:31;;;;;;;16.65;2.20;;;;;;;;;;5062963;28;20730;-35
2024/03/13 10:27:01;;;;;;;15.48;1.70;;;;;;;;;;5063155;28;20027;-35
2024/03/13 10:29:28;;;;;;;15.65;1.83;;;;;;;;;;5064602;28;20108;-34
2024/03/13 10:31:56;;;;;;;8.10;1.40;;;;;;;;;;5063323;28;20033;-35
2024/03/13 10:34:23;;;;;;;8.00;1.52;;;;;;;;;;5061223;28;20050;-36
2024/03/13 10:36:51;;;;;;;6.10;1.50;;;;;;;;;;5061453;28;20021;-36
2024/03/13 10:39:21;;;;;;;9.00;1.85;;;;;;;;;;5044112;28;20452;-35
2024/03/13 10:41:50;;;;;;;11.25;1.85;;;;;;;;;;5064348;28;20048;-36
2024/03/13 10:44:22;;;;;;;12.73;1.60;;;;;;;;;;5063642;28;20107;-36
2024/03/13 10:46:50;;;;;;;11.02;1.83;;;;;;;;;;5064704;28;20037;-35
2024/03/13 10:49:18;;;;;;;9.27;1.70;;;;;;;;;;5061935;28;20033;-35
2024/03/13 10:51:45;;;;;;;8.30;1.58;;;;;;;;;;5066522;28;20119;-36
2024/03/13 10:54:12;;;;;;;15.85;1.85;;;;;;;;;;5071558;28;20074;-36
2024/03/13 10:56:39;;;;;;;11.38;2.30;;;;;;;;;;5073112;28;20036;-36
2024/03/13 10:59:07;;;;;;;10.77;1.77;;;;;;;;;;5053986;28;20063;-36
2024/03/13 11:01:34;;;;;;;11.40;2.05;;;;;;;;;;5073295;28;20056;-36
2024/03/13 11:04:01;;;;;;;16.27;2.10;;;;;;;;;;5058155;28;20116;-35
2024/03/13 11:06:28;;;;;;;9.57;1.90;;;;;;;;;;5064942;28;20024;-35
2024/03/13 11:09:00;;;;;;;11.23;2.10;;;;;;;;;;5063524;28;20375;-36
2024/03/13 11:11:28;;;;;;;10.25;1.50;;;;;;;;;;5065431;28;20108;-36
2024/03/13 11:13:56;;;;;;;11.02;1.77;;;;;;;;;;5060848;28;20044;-35
2024/03/13 11:16:23;;;;;;;11.95;1.75;;;;;;;;;;5064270;28;20017;-36
2024/03/13 11:18:56;;;;;;;9.63;1.95;;;;;;;;;;5063105;28;20115;-36
2024/03/13 11:21:22;;;;;;;;;;;;;;;;;;5056942;28;20178;-35
2024/03/13 11:23:52;;;;;;;5.45;1.23;;;;;;;;;;5053042;28;20007;-36
2024/03/13 11:26:22;;;;;;;7.55;1.00;;;;;;;;;;5053214;28;20029;-35
2024/03/13 11:28:54;;;;;;;7.35;1.48;;;;;;;;;;5052886;28;20029;-35
2024/03/13 11:31:25;;;;;;;6.90;1.17;;;;;;;;;;5052968;28;20434;-35
2024/03/13 11:33:52;;;;;;;6.35;0.98;;;;;;;;;;5053188;28;20032;-36
2024/03/13 11:36:20;;;;;;;2.58;0.85;;;;;;;;;;5053105;28;20029;-36
2024/03/13 11:38:47;;;;;;;5.70;1.15;;;;;;;;;;5052879;28;20100;-36
2024/03/13 11:41:15;;;;;;;2.65;0.70;;;;;;;;;;5052710;28;20029;-35
2024/03/13 11:43:42;;;;;;;5.57;1.35;;;;;;;;;;5052905;28;20033;-35
2024/03/13 11:46:14;;;;;;;7.55;1.27;;;;;;;;;;5052848;28;20032;-36
2024/03/13 11:48:42;;;;;;;4.80;1.23;;;;;;;;;;5052631;28;20150;-36
2024/03/13 11:51:13;;;;;;;2.50;1.00;;;;;;;;;;5052626;28;20497;-36
2024/03/13 11:53:40;;;;;;;4.43;1.00;;;;;;;;;;5052622;28;20113;-36
2024/03/13 11:56:20;;;;;;;3.10;0.77;;;;;;;;;;5052605;28;20071;-35
2024/03/13 11:58:48;;;;;;;8.15;0.90;;;;;;;;;;5052450;28;20119;-35
2024/03/13 12:01:15;;;;;;;4.15;0.80;;;;;;;;;;5051865;28;20064;-36
2024/03/13 12:03:48;;;;;;;2.75;0.70;;;;;;;;;;5051777;28;20111;-36
2024/03/13 12:06:14;;;;;;;;;;;;;;;;;;5059906;28;20525;-35
2024/03/13 12:08:41;;;;;;;5.50;0.70;;;;;;;;;;5072330;28;20274;-36
2024/03/13 12:11:17;;;;;;;3.92;0.80;;;;;;;;;;5072187;28;20039;-36
2024/03/13 12:13:44;;;;;;;4.72;1.15;;;;;;;;;;5072423;28;20074;-36
2024/03/13 12:16:15;;;;;;;4.65;1.10;;;;;;;;;;5072249;28;20025;-36
2024/03/13 12:18:54;;;;;;;5.78;1.20;;;;;;;;;;5072121;28;20127;-35
2024/03/13 12:21:21;;;;;;;7.80;1.10;;;;;;;;;;5072091;28;20032;-35
2024/03/13 12:23:48;;;;;;;2.67;0.90;;;;;;;;;;5072028;28;20062;-36
2024/03/13 12:26:15;;;;;;;5.63;1.33;;;;;;;;;;5072106;28;20378;-35
2024/03/13 12:28:42;;;;;;;4.50;0.90;;;;;;;;;;5071921;28;20081;-35
2024/03/13 12:31:09;;;;;;;3.90;0.85;;;;;;;;;;5072015;28;20147;-36
2024/03/13 12:33:36;;;;;;;5.97;0.90;;;;;;;;;;5054071;28;20457;-36
2024/03/13 12:36:03;;;;;;;5.13;0.90;;;;;;;;;;5072066;28;20028;-36
2024/03/13 12:38:37;;;;;;;3.20;0.85;;;;;;;;;;5072014;28;20024;-35
2024/03/13 12:41:05;;;;;;;3.53;0.82;;;;;;;;;;5053583;28;20452;-36
2024/03/13 12:43:32;;;;;;;3.80;0.70;;;;;;;;;;5071966;28;20119;-36
2024/03/13 12:46:03;;;;;;;1.77;0.70;;;;;;;;;;5071851;28;20047;-36
2024/03/13 12:48:33;;;;;;;3.80;0.60;;;;;;;;;;5071767;28;20021;-36
2024/03/13 12:51:01;;;;;;;2.67;0.60;;;;;;;;;;5071352;28;20051;-36
2024/03/13 12:53:32;;;;;;;6.80;0.85;;;;;;;;;;5070398;28;20122;-36
2024/03/13 12:56:00;;;;;;;2.78;0.80;;;;;;;;;;5071569;28;20478;-36
2024/03/13 12:58:32;;;;;;;2.78;0.60;;;;;;;;;;5071498;28;20043;-35
2024/03/13 13:01:03;;;;;;;7.00;0.60;;;;;;;;;;5071411;28;20067;-36
2024/03/13 13:03:32;;;;;;;4.93;0.70;;;;;;;;;;5071350;28;20371;-35
2024/03/13 13:05:58;;;;;;;3.65;0.68;;;;;;;;;;5071485;28;20033;-35
2024/03/13 13:08:26;;;;;;;5.70;1.30;;;;;;;;;;5071534;28;20033;-36
2024/03/13 13:10:53;;;;;;;10.88;1.10;;;;;;;;;;5071130;28;20583;-35
2024/03/13 13:13:20;;;;;;;5.55;0.82;;;;;;;;;;5071515;28;20020;-36
2024/03/13 13:15:47;;;;;;;3.92;0.70;;;;;;;;;;5071267;28;20016;-36
2024/03/13 13:18:15;;;;;;;5.55;0.70;;;;;;;;;;5071441;28;20442;-35
2024/03/13 13:20:42;;;;;;;7.43;1.02;;;;;;;;;;5071181;28;20432;-35
2024/03/13 13:23:12;;;;;;;2.63;0.52;;;;;;;;;;5052982;28;20068;-36
2024/03/13 13:25:39;;;;;;;3.55;0.80;;;;;;;;;;5071254;28;20513;-36
2024/03/13 13:28:12;;;;;;;4.80;0.70;;;;;;;;;;5071222;28;20021;-36
2024/03/13 13:30:43;;;;;;;5.60;0.60;;;;;;;;;;5070966;28;20080;-36
2024/03/13 13:33:10;;;;;;;3.10;0.70;;;;;;;;;;5071254;28;20081;-35
2024/03/13 13:35:38;;;;;;;3.53;0.68;;;;;;;;;;5071239;28;20032;-36
2024/03/13 13:38:05;;;;;;;2.72;0.55;;;;;;;;;;5069808;28;20098;-35
2024/03/13 13:40:35;;;;;;;5.40;0.90;;;;;;;;;;5053070;28;20551;-36
2024/03/13 13:43:04;;;;;;;3.03;0.60;;;;;;;;;;5071219;28;20044;-36
2024/03/13 13:45:32;;;;;;;4.57;0.88;;;;;;;;;;5071262;28;20025;-36
2024/03/13 13:47:58;;;;;;;4.07;0.70;;;;;;;;;;5071190;28;20039;-35
2024/03/13 13:50:26;;;;;;;1.73;0.50;;;;;;;;;;5071017;28;20035;-36
2024/03/13 13:52:53;;;;;;;9.90;0.80;;;;;;;;;;5071010;28;20024;-35
2024/03/13 13:55:20;;;;;;;2.25;0.50;;;;;;;;;;5070804;28;20127;-35
2024/03/13 13:57:50;;;;;;;2.75;0.55;;;;;;;;;;5071077;28;20017;-35
2024/03/13 14:00:17;;;;;;;5.88;0.90;;;;;;;;;;5070745;28;20040;-36
2024/03/13 14:08:15;;;;;;;3.90;0.70;;;;;;;;;;5051742;28;706248;-32
2024/03/13 14:10:42;;;;;;;1.10;0.60;;;;;;;;;;5089093;28;20082;-32
2024/03/13 14:13:08;;;;;;;3.92;0.85;;;;;;;;;;5089030;28;20028;-32
2024/03/13 14:15:35;;;;;;;0.88;0.35;;;;;;;;;;5089113;28;20027;-32
2024/03/13 14:18:06;;;;;;;9.25;1.20;;;;;;;;;;5088743;28;20076;-32
2024/03/13 14:20:33;;;;;;;2.85;0.60;;;;;;;;;;5088888;28;20040;-32
2024/03/13 14:23:00;;;;;;;2.13;0.73;;;;;;;;;;5088853;28;20032;-31
2024/03/13 14:25:27;;;;;;;2.65;0.70;;;;;;;;;;5079493;28;20028;-32
2024/03/13 14:27:54;;;;;;;2.45;0.65;;;;;;;;;;5078281;28;20055;-31
2024/03/13 14:30:21;;;;;;;4.65;1.00;;;;;;;;;;5088884;28;20024;-31
2024/03/13 14:32:48;;;;;;;1.42;0.60;;;;;;;;;;5088638;28;20030;-32
2024/03/13 14:35:15;;;;;;;3.78;0.68;;;;;;;;;;5088746;28;20020;-31
2024/03/13 14:37:42;;;;;;;2.30;0.73;;;;;;;;;;5088669;28;20111;-31
2024/03/13 14:40:16;;;;;;;4.13;0.90;;;;;;;;;;5088673;28;20024;-32
2024/03/13 14:42:45;;;;;;;3.95;0.73;;;;;;;;;;5088447;28;20145;-32
2024/03/13 14:45:12;;;;;;;8.35;0.80;;;;;;;;;;5088483;28;20029;-31
2024/03/13 14:47:40;;;;;;;3.28;1.05;;;;;;;;;;5088355;28;20031;-31
2024/03/13 14:50:10;;;;;;;4.55;0.90;;;;;;;;;;5088354;28;20028;-32
2024/03/13 14:52:37;;;;;;;3.20;0.80;;;;;;;;;;5088320;28;20477;-31
2024/03/13 14:55:04;;;;;;;3.63;0.90;;;;;;;;;;5088215;28;20028;-31
2024/03/13 14:57:32;;;;;;;3.38;1.00;;;;;;;;;;5088338;28;20054;-32
2024/03/13 14:59:59;;;;;;;3.05;0.80;;;;;;;;;;5088268;28;20131;-32
2024/03/13 15:02:28;;;;;;;4.88;0.95;;;;;;;;;;5086695;28;20436;-32
2024/03/13 15:04:55;;;;;;;2.50;0.75;;;;;;;;;;5088000;28;20052;-32
2024/03/13 15:07:22;;;;;;;2.15;0.85;;;;;;;;;;5087744;28;20493;-32
2024/03/13 15:09:49;;;;;;;4.05;0.70;;;;;;;;;;5088017;28;20112;-32
2024/03/13 15:12:17;;;;;;;2.85;0.70;;;;;;;;;;5087910;28;20020;-32
2024/03/13 15:14:44;;;;;;;4.25;0.90;;;;;;;;;;5083123;28;20048;-32
2024/03/13 15:17:12;;;;;;;4.45;1.15;;;;;;;;;;5074365;28;20032;-32
2024/03/13 15:19:41;;;;;;;4.50;0.80;;;;;;;;;;5074290;28;20089;-32
2024/03/13 15:22:09;;;;;;;4.45;1.02;;;;;;;;;;5074182;28;20493;-32
2024/03/13 15:24:38;;;;;;;3.75;1.00;;;;;;;;;;5074154;28;20036;-31
2024/03/13 15:27:05;;;;;;;5.40;0.90;;;;;;;;;;5074127;28;20037;-32
2024/03/13 15:29:35;;;;;;;6.57;0.90;;;;;;;;;;5074403;28;20382;-32
2024/03/13 15:32:02;;;;;;;3.13;0.80;;;;;;;;;;5074165;28;20057;-32
2024/03/13 15:34:32;;;;;;;2.60;0.75;;;;;;;;;;5074068;28;20024;-32
2024/03/13 15:37:00;;;;;;;4.70;0.82;;;;;;;;;;5074058;28;20029;-32
2024/03/13 15:39:27;;;;;;;2.70;0.85;;;;;;;;;;5073958;28;20102;-31
2024/03/13 15:41:54;;;;;;;4.70;1.00;;;;;;;;;;5064458;28;20115;-31